createdAt,value
2022-12-10T00:01:32.862Z,11.17
2022-12-10T00:04:00.732Z,10.90
2022-12-10T00:06:30.918Z,11.27
2022-12-10T00:08:59.746Z,10.80
2022-12-10T00:11:27.978Z,10.17
2022-12-10T00:13:55.610Z,10.37
2022-12-10T00:16:25.820Z,10.17
2022-12-10T00:18:54.267Z,10.87
2022-12-10T00:21:27.469Z,10.20
2022-12-10T00:23:55.295Z,10.97
2022-12-10T00:26:25.159Z,11.13
2022-12-10T00:28:53.955Z,11.20
2022-12-10T00:31:27.800Z,10.90
2022-12-10T00:34:00.989Z,10.90
2022-12-10T00:36:31.764Z,11.13
2022-12-10T00:39:00.600Z,11.53
2022-12-10T00:41:29.295Z,11.30
2022-12-10T00:43:56.837Z,10.90
2022-12-10T00:46:24.867Z,11.27
2022-12-10T00:48:52.386Z,11.37
2022-12-10T00:51:22.984Z,11.47
2022-12-10T00:53:52.500Z,11.27
2022-12-10T00:56:22.765Z,11.23
2022-12-10T00:58:51.124Z,11.27
2022-12-10T01:01:23.680Z,11.27
2022-12-10T01:03:55.824Z,11.50
2022-12-10T01:06:24.320Z,11.00
2022-12-10T01:08:54.152Z,10.80
2022-12-10T01:11:25.418Z,11.10
2022-12-10T01:13:53.785Z,10.67
2022-12-10T01:16:22.731Z,10.97
2022-12-10T01:18:57.962Z,10.97
2022-12-10T01:21:27.255Z,10.83
2022-12-10T01:23:55.423Z,10.70
2022-12-10T01:26:30.174Z,9.97
2022-12-10T01:28:58.337Z,10.97
2022-12-10T01:31:29.501Z,10.80
2022-12-10T01:33:59.071Z,11.10
2022-12-10T01:36:44.939Z,10.93
2022-12-10T01:39:16.105Z,10.77
2022-12-10T01:41:50.077Z,10.63
2022-12-10T01:44:18.682Z,10.93
2022-12-10T01:46:48.512Z,10.40
2022-12-10T01:49:28.110Z,10.50
2022-12-10T01:51:57.081Z,9.80
2022-12-10T01:54:31.021Z,10.27
2022-12-10T01:57:04.014Z,10.37
2022-12-10T01:59:33.456Z,10.53
2022-12-10T02:02:41.857Z,10.57
2022-12-10T02:05:27.604Z,10.47
2022-12-10T02:08:11.892Z,9.80
2022-12-10T02:10:54.101Z,10.83
2022-12-10T02:13:31.769Z,10.20
2022-12-10T02:16:15.952Z,10.33
2022-12-10T02:19:11.506Z,10.30
2022-12-10T02:21:42.063Z,10.30
2022-12-10T02:24:15.003Z,10.47
2022-12-10T02:26:50.255Z,10.27
2022-12-10T02:29:27.291Z,10.73
2022-12-10T02:32:00.389Z,10.73
2022-12-10T02:34:31.984Z,11.63
2022-12-10T02:37:05.798Z,11.30
2022-12-10T02:39:39.930Z,11.27
2022-12-10T02:42:10.002Z,11.07
2022-12-10T02:44:41.309Z,10.73
2022-12-10T02:47:11.212Z,11.40
2022-12-10T02:49:44.560Z,11.43
2022-12-10T02:52:14.765Z,11.27
2022-12-10T02:54:49.584Z,11.17
2022-12-10T02:57:37.671Z,12.13
2022-12-10T03:00:25.504Z,11.93
2022-12-10T03:03:39.456Z,11.47
2022-12-10T03:06:14.390Z,11.63
2022-12-10T03:09:00.651Z,11.87
2022-12-10T03:11:29.427Z,11.50
2022-12-10T03:14:16.805Z,10.90
2022-12-10T03:16:56.759Z,11.07
2022-12-10T03:19:47.611Z,10.67
2022-12-10T03:22:18.573Z,11.17
2022-12-10T03:24:46.386Z,11.60
2022-12-10T03:27:16.471Z,11.33
2022-12-10T03:29:50.448Z,10.67
2022-12-10T03:32:20.460Z,11.37
2022-12-10T03:34:48.721Z,11.93
2022-12-10T03:37:16.315Z,11.60
2022-12-10T03:39:44.137Z,11.00
2022-12-10T03:42:11.506Z,11.73
2022-12-10T03:44:41.342Z,11.60
2022-12-10T03:47:12.331Z,11.13
2022-12-10T03:49:39.869Z,11.33
2022-12-10T03:52:07.228Z,12.00
2022-12-10T03:54:34.643Z,11.60
2022-12-10T03:57:02.042Z,11.73
2022-12-10T03:59:29.562Z,12.00
2022-12-10T04:01:59.039Z,12.67
2022-12-10T04:04:26.495Z,11.37
2022-12-10T04:06:54.191Z,11.83
2022-12-10T04:09:21.579Z,11.53
2022-12-10T04:11:48.904Z,11.43
2022-12-10T04:14:35.039Z,12.20
2022-12-10T04:17:02.410Z,12.33
2022-12-10T04:19:29.839Z,12.17
2022-12-10T04:22:15.564Z,11.77
2022-12-10T04:25:01.529Z,12.70
2022-12-10T04:27:32.089Z,13.30
2022-12-10T04:30:00.769Z,12.80
2022-12-10T04:32:29.916Z,12.40
2022-12-10T04:34:58.013Z,12.57
2022-12-10T04:37:26.064Z,12.50
2022-12-10T04:39:53.625Z,12.90
2022-12-10T04:42:22.711Z,12.50
2022-12-10T04:44:50.291Z,12.97
2022-12-10T04:47:17.938Z,13.50
2022-12-10T04:49:45.388Z,13.50
2022-12-10T04:52:14.690Z,13.50
2022-12-10T04:54:42.790Z,14.00
2022-12-10T04:57:10.985Z,13.33
2022-12-10T04:59:38.782Z,14.10
2022-12-10T05:02:07.115Z,14.40
2022-12-10T05:04:35.081Z,14.40
2022-12-10T05:07:02.736Z,14.87
2022-12-10T05:09:30.109Z,15.07
2022-12-10T05:11:57.565Z,14.70
2022-12-10T05:14:25.057Z,15.10
2022-12-10T05:16:52.918Z,15.27
2022-12-10T05:19:20.909Z,16.17
2022-12-10T05:22:07.113Z,17.13
2022-12-10T05:24:35.068Z,16.53
2022-12-10T05:27:02.544Z,15.90
2022-12-10T05:29:30.337Z,16.37
2022-12-10T05:31:57.677Z,16.37
2022-12-10T05:34:25.058Z,16.67
2022-12-10T05:36:54.539Z,16.17
2022-12-10T05:39:21.876Z,16.33
2022-12-10T05:41:49.208Z,15.17
2022-12-10T05:44:16.635Z,15.33
2022-12-10T05:46:44.020Z,15.77
2022-12-10T05:49:11.502Z,15.30
2022-12-10T05:51:39.440Z,15.83
2022-12-10T05:54:08.107Z,16.10
2022-12-10T05:56:37.235Z,15.70
2022-12-10T05:59:05.507Z,15.73
2022-12-10T06:01:35.797Z,15.50
2022-12-10T06:04:05.665Z,15.60
2022-12-10T06:06:38.471Z,15.20
2022-12-10T06:09:07.728Z,15.43
2022-12-10T06:11:35.357Z,16.00
2022-12-10T06:14:03.364Z,15.87
2022-12-10T06:16:31.128Z,16.17
2022-12-10T06:18:59.482Z,17.23
2022-12-10T06:21:26.999Z,15.93
2022-12-10T06:23:54.896Z,15.87
2022-12-10T06:26:25.587Z,16.47
2022-12-10T06:28:54.507Z,17.03
2022-12-10T06:31:22.715Z,15.90
2022-12-10T06:33:50.603Z,16.63
2022-12-10T06:36:18.942Z,16.70
2022-12-10T06:38:47.879Z,16.17
2022-12-10T06:41:17.224Z,16.67
2022-12-10T06:43:44.594Z,16.57
2022-12-10T06:46:14.579Z,16.87
2022-12-10T06:48:42.938Z,17.40
2022-12-10T06:51:12.367Z,17.13
2022-12-10T06:53:40.607Z,17.90
2022-12-10T06:56:11.846Z,18.20
2022-12-10T06:58:41.533Z,17.83
2022-12-10T07:01:12.105Z,16.47
2022-12-10T07:03:39.531Z,18.17
2022-12-10T07:06:08.971Z,17.23
2022-12-10T07:08:37.891Z,17.60
2022-12-10T07:11:07.444Z,18.03
2022-12-10T07:13:35.643Z,17.57
2022-12-10T07:16:14.631Z,17.37
2022-12-10T07:18:46.173Z,17.83
2022-12-10T07:21:21.932Z,18.53
2022-12-10T07:23:49.556Z,17.90
2022-12-10T07:26:17.150Z,16.97
2022-12-10T07:28:52.513Z,17.63
2022-12-10T07:31:22.702Z,17.37
2022-12-10T07:33:51.536Z,17.57
2022-12-10T07:36:19.011Z,17.93
2022-12-10T07:38:47.373Z,16.27
2022-12-10T07:41:15.694Z,17.80
2022-12-10T07:43:44.695Z,17.07
2022-12-10T07:46:32.246Z,16.70
2022-12-10T07:49:03.467Z,17.17
2022-12-10T07:51:31.685Z,17.33
2022-12-10T07:53:59.033Z,17.67
2022-12-10T07:56:26.577Z,17.40
2022-12-10T07:58:54.714Z,17.63
2022-12-10T08:01:26.912Z,17.07
2022-12-10T08:03:57.434Z,16.37
2022-12-10T08:06:26.582Z,17.47
2022-12-10T08:08:54.230Z,17.10
2022-12-10T08:11:23.399Z,16.80
2022-12-10T08:13:56.627Z,16.47
2022-12-10T08:16:26.823Z,16.90
2022-12-10T08:18:58.798Z,16.87
2022-12-10T08:21:29.370Z,17.33
2022-12-10T08:23:56.988Z,18.33
2022-12-10T08:26:27.274Z,17.53
2022-12-10T08:28:55.973Z,17.03
2022-12-10T08:31:25.222Z,17.47
2022-12-10T08:33:53.311Z,17.33
2022-12-10T08:36:21.923Z,16.70
2022-12-10T08:38:49.271Z,17.40
2022-12-10T08:41:20.026Z,17.50
2022-12-10T08:43:48.811Z,17.50
2022-12-10T08:46:17.099Z,17.80
2022-12-10T08:48:44.674Z,17.30
2022-12-10T08:51:15.925Z,17.63
2022-12-10T08:53:45.248Z,17.77
2022-12-10T08:56:13.275Z,18.47
2022-12-10T08:58:41.316Z,18.63
2022-12-10T09:01:11.208Z,17.63
2022-12-10T09:03:39.957Z,17.97
2022-12-10T09:06:12.227Z,18.53
2022-12-10T09:08:40.918Z,18.80
2022-12-10T09:11:10.533Z,19.37
2022-12-10T09:13:37.877Z,18.50
2022-12-10T09:16:06.060Z,19.63
2022-12-10T09:18:33.668Z,18.33
2022-12-10T09:21:01.098Z,19.30
2022-12-10T09:23:28.428Z,18.70
2022-12-10T09:25:55.824Z,18.53
2022-12-10T09:28:23.125Z,18.70
2022-12-10T09:30:58.590Z,18.67
2022-12-10T09:33:27.833Z,18.47
2022-12-10T09:35:55.248Z,18.27
2022-12-10T09:38:22.665Z,18.53
2022-12-10T09:41:00.764Z,19.27
2022-12-10T09:44:09.482Z,19.40
2022-12-10T09:46:49.429Z,19.20
2022-12-10T09:49:55.278Z,19.83
2022-12-10T09:52:25.278Z,19.87
2022-12-10T09:55:02.736Z,20.47
2022-12-10T09:57:55.673Z,20.53
2022-12-10T10:00:37.904Z,19.50
2022-12-10T10:03:07.382Z,19.80
2022-12-10T10:05:41.986Z,19.80
2022-12-10T10:08:20.299Z,19.60
2022-12-10T10:10:48.329Z,20.53
2022-12-10T10:13:54.132Z,19.67
2022-12-10T10:16:36.187Z,19.70
2022-12-10T10:19:18.968Z,20.30
2022-12-10T10:21:48.928Z,20.17
2022-12-10T10:24:25.487Z,20.17
2022-12-10T10:26:57.608Z,20.40
2022-12-10T10:29:27.380Z,20.47
2022-12-10T10:32:24.058Z,21.50
2022-12-10T10:34:58.285Z,21.80
2022-12-10T10:37:32.788Z,19.83
2022-12-10T10:40:00.323Z,20.60
2022-12-10T10:42:58.952Z,20.53
2022-12-10T10:45:43.053Z,20.50
2022-12-10T10:48:23.420Z,21.50
2022-12-10T10:51:09.452Z,20.73
2022-12-10T10:53:39.817Z,20.43
2022-12-10T10:56:19.985Z,19.37
2022-12-10T10:59:02.803Z,20.23
2022-12-10T11:01:52.354Z,21.57
2022-12-10T11:04:35.444Z,21.10
2022-12-10T11:07:05.499Z,21.47
2022-12-10T11:09:37.785Z,22.07
2022-12-10T11:12:11.957Z,21.80
2022-12-10T11:14:48.208Z,21.23
2022-12-10T11:17:21.639Z,21.17
2022-12-10T11:20:02.395Z,21.00
2022-12-10T11:22:31.300Z,21.90
2022-12-10T11:25:00.197Z,21.43
2022-12-10T11:27:37.647Z,21.80
2022-12-10T11:30:18.715Z,21.13
2022-12-10T11:33:07.277Z,19.97
2022-12-10T11:35:52.551Z,21.20
2022-12-10T11:38:31.713Z,21.27
2022-12-10T11:41:05.124Z,21.53
2022-12-10T11:43:53.673Z,20.73
2022-12-10T11:46:58.939Z,20.60
2022-12-10T11:49:45.108Z,20.03
2022-12-10T11:52:31.109Z,20.83
2022-12-10T11:55:19.557Z,20.60
2022-12-10T11:58:05.517Z,20.97
2022-12-10T12:00:47.123Z,19.27
2022-12-10T12:03:28.918Z,20.00
2022-12-10T12:06:20.732Z,20.70
2022-12-10T12:08:58.332Z,20.70
2022-12-10T12:11:47.343Z,19.97
2022-12-10T12:14:30.230Z,20.30
2022-12-10T12:17:06.670Z,20.23
2022-12-10T12:19:39.615Z,20.50
2022-12-10T12:22:32.056Z,20.37
2022-12-10T12:25:06.271Z,20.13
2022-12-10T12:27:40.800Z,20.20
2022-12-10T12:30:20.745Z,19.43
2022-12-10T12:33:02.081Z,20.13
2022-12-10T12:35:43.120Z,20.33
2022-12-10T12:38:31.942Z,19.93
2022-12-10T12:41:07.555Z,19.63
2022-12-10T12:43:38.249Z,19.93
2022-12-10T12:46:13.540Z,19.97
2022-12-10T12:48:54.228Z,20.03
2022-12-10T12:51:36.089Z,20.47
2022-12-10T12:54:03.602Z,19.40
2022-12-10T12:57:07.087Z,18.43
2022-12-10T12:59:53.154Z,18.00
2022-12-10T13:02:54.023Z,18.33
2022-12-10T13:05:29.700Z,19.87
2022-12-10T13:08:22.258Z,20.13
2022-12-10T13:11:01.641Z,19.70
2022-12-10T13:13:29.006Z,20.30
2022-12-10T13:15:56.771Z,19.90
2022-12-10T13:18:44.441Z,19.90
2022-12-10T13:21:31.171Z,19.53
2022-12-10T13:24:13.313Z,18.83
2022-12-10T13:27:03.555Z,19.73
2022-12-10T13:29:55.656Z,19.47
2022-12-10T13:32:34.876Z,19.73
2022-12-10T13:35:17.189Z,19.10
2022-12-10T13:37:50.699Z,21.03
2022-12-10T13:40:24.404Z,19.80
2022-12-10T13:43:35.926Z,19.37
2022-12-10T13:46:56.518Z,19.23
2022-12-10T13:49:28.904Z,20.90
2022-12-10T13:51:56.343Z,21.57
2022-12-10T13:54:42.223Z,21.43
2022-12-10T13:57:40.488Z,23.07
2022-12-10T14:00:22.074Z,21.70
2022-12-10T14:03:14.123Z,24.87
2022-12-10T14:06:19.071Z,25.07
2022-12-10T14:08:57.239Z,33.40
2022-12-10T14:11:36.816Z,22.63
2022-12-10T14:14:10.756Z,22.23
2022-12-10T14:16:40.652Z,24.03
2022-12-10T14:19:14.176Z,24.10
2022-12-10T14:21:43.923Z,26.80
2022-12-10T14:24:29.173Z,25.00
2022-12-10T14:27:17.756Z,25.57
2022-12-10T14:29:51.231Z,23.13
2022-12-10T14:32:24.220Z,23.03
2022-12-10T14:34:55.712Z,23.37
2022-12-10T14:37:31.844Z,23.83
2022-12-10T14:39:59.617Z,24.40
2022-12-10T14:42:28.153Z,24.03
2022-12-10T14:45:06.677Z,24.63
2022-12-10T14:47:42.586Z,26.13
2022-12-10T14:50:16.323Z,24.73
2022-12-10T14:52:50.120Z,26.30
2022-12-10T14:55:21.510Z,25.70
2022-12-10T14:58:02.632Z,24.97
2022-12-10T15:00:30.386Z,26.03
2022-12-10T15:03:11.132Z,24.33
2022-12-10T15:05:39.389Z,23.30
2022-12-10T15:08:18.655Z,22.83
2022-12-10T15:10:51.231Z,23.30
2022-12-10T15:13:41.410Z,22.73
2022-12-10T15:16:32.891Z,23.50
2022-12-10T15:19:33.677Z,24.97
2022-12-10T15:22:13.044Z,24.80
2022-12-10T15:24:44.299Z,23.20
2022-12-10T15:27:24.049Z,23.63
2022-12-10T15:29:53.740Z,23.50
2022-12-10T15:32:24.101Z,23.17
2022-12-10T15:35:08.169Z,23.13
2022-12-10T15:37:41.267Z,23.50
2022-12-10T15:40:25.336Z,23.27
2022-12-10T15:42:57.739Z,23.83
2022-12-10T15:45:43.809Z,22.80
2022-12-10T15:48:15.560Z,22.63
2022-12-10T15:50:46.132Z,23.20
2022-12-10T15:53:17.839Z,23.60
2022-12-10T15:55:45.877Z,23.23
2022-12-10T15:58:14.937Z,22.33
2022-12-10T16:00:45.385Z,24.50
2022-12-10T16:03:16.241Z,23.27
2022-12-10T16:05:46.601Z,23.17
2022-12-10T16:08:23.635Z,23.20
2022-12-10T16:10:54.246Z,22.40
2022-12-10T16:13:26.166Z,23.43
2022-12-10T16:16:06.943Z,23.13
2022-12-10T16:18:38.053Z,23.57
2022-12-10T16:21:07.922Z,23.70
2022-12-10T16:23:37.985Z,23.93
2022-12-10T16:26:26.906Z,22.47
2022-12-10T16:28:56.410Z,24.23
2022-12-10T16:31:24.840Z,23.47
2022-12-10T16:33:53.869Z,26.60
2022-12-10T16:36:21.729Z,23.93
2022-12-10T16:38:49.663Z,24.27
2022-12-10T16:41:25.462Z,22.90
2022-12-10T16:43:53.907Z,25.07
2022-12-10T16:46:22.554Z,24.87
2022-12-10T16:48:51.859Z,24.73
2022-12-10T16:51:26.999Z,24.00
2022-12-10T16:53:55.294Z,23.93
2022-12-10T16:56:23.517Z,24.03
2022-12-10T16:58:51.376Z,23.80
2022-12-10T17:01:23.939Z,23.93
2022-12-10T17:03:52.774Z,25.20
2022-12-10T17:06:21.639Z,25.37
2022-12-10T17:08:50.310Z,25.03
2022-12-10T17:11:38.827Z,24.17
2022-12-10T17:14:10.523Z,24.23
2022-12-10T17:16:38.580Z,25.20
2022-12-10T17:19:06.285Z,25.17
2022-12-10T17:21:38.446Z,24.30
2022-12-10T17:24:06.600Z,24.90
2022-12-10T17:26:37.688Z,25.10
2022-12-10T17:29:12.277Z,25.03
2022-12-10T17:31:40.656Z,25.23
2022-12-10T17:34:09.749Z,25.80
2022-12-10T17:36:37.463Z,25.83
2022-12-10T17:39:06.669Z,24.60
2022-12-10T17:41:34.893Z,25.60
2022-12-10T17:44:03.171Z,25.63
2022-12-10T17:46:34.141Z,26.13
2022-12-10T17:49:02.923Z,25.97
2022-12-10T17:51:31.210Z,26.63
2022-12-10T17:53:59.839Z,26.77
2022-12-10T17:56:31.884Z,27.20
2022-12-10T17:59:01.189Z,26.40
2022-12-10T18:01:29.184Z,26.17
2022-12-10T18:03:56.816Z,28.40
2022-12-10T18:06:30.709Z,28.43
2022-12-10T18:09:02.666Z,29.10
2022-12-10T18:11:33.279Z,29.43
2022-12-10T18:14:01.978Z,29.97
2022-12-10T18:16:33.756Z,30.10
2022-12-10T18:19:04.178Z,28.07
2022-12-10T18:21:32.044Z,27.87
2022-12-10T18:23:59.560Z,27.30
2022-12-10T18:26:27.731Z,27.60
2022-12-10T18:29:00.401Z,27.13
2022-12-10T18:31:32.700Z,26.97
2022-12-10T18:34:08.453Z,27.23
2022-12-10T18:36:38.750Z,27.73
2022-12-10T18:39:20.257Z,27.80
2022-12-10T18:41:49.777Z,26.53
2022-12-10T18:44:23.171Z,25.33
2022-12-10T18:46:52.530Z,25.30
2022-12-10T18:49:21.171Z,25.10
2022-12-10T18:51:49.442Z,26.13
2022-12-10T18:54:18.774Z,25.77
2022-12-10T18:56:58.081Z,26.70
2022-12-10T18:59:34.731Z,26.60
2022-12-10T19:02:02.879Z,26.67
2022-12-10T19:04:31.159Z,26.30
2022-12-10T19:07:00.164Z,26.43
2022-12-10T19:09:32.566Z,26.83
2022-12-10T19:12:00.516Z,27.80
2022-12-10T19:14:29.376Z,27.80
2022-12-10T19:16:58.524Z,27.33
2022-12-10T19:19:27.922Z,27.37
2022-12-10T19:21:56.977Z,28.60
2022-12-10T19:24:25.078Z,27.07
2022-12-10T19:26:52.707Z,28.80
2022-12-10T19:29:24.558Z,27.67
2022-12-10T19:31:55.507Z,31.40
2022-12-10T19:34:25.702Z,28.33
2022-12-10T19:36:57.044Z,33.13
2022-12-10T19:39:26.754Z,29.63
2022-12-10T19:41:59.481Z,29.73
2022-12-10T19:44:28.345Z,29.10
2022-12-10T19:46:56.693Z,27.50
2022-12-10T19:49:25.922Z,29.13
2022-12-10T19:51:55.754Z,28.43
2022-12-10T19:54:27.443Z,28.60
2022-12-10T19:56:58.589Z,28.83
2022-12-10T19:59:27.896Z,31.67
2022-12-10T20:01:56.573Z,28.40
2022-12-10T20:04:25.513Z,28.37
2022-12-10T20:06:55.423Z,26.73
2022-12-10T20:09:29.645Z,26.67
2022-12-10T20:11:58.441Z,30.35
2022-12-10T20:14:26.461Z,27.70
2022-12-10T20:16:55.110Z,27.80
2022-12-10T20:19:25.888Z,27.33
2022-12-10T20:21:56.153Z,27.33
2022-12-10T20:24:27.292Z,27.07
2022-12-10T20:26:56.037Z,28.43
2022-12-10T20:29:26.778Z,29.08
2022-12-10T20:31:57.711Z,28.00
2022-12-10T20:34:27.385Z,27.73
2022-12-10T20:36:56.007Z,27.57
2022-12-10T20:39:33.454Z,26.33
2022-12-10T20:42:02.591Z,27.23
2022-12-10T20:44:31.128Z,25.87
2022-12-10T20:47:00.685Z,26.07
2022-12-10T20:49:29.876Z,26.83
2022-12-10T20:51:58.749Z,26.63
2022-12-10T20:54:26.876Z,25.67
2022-12-10T20:56:58.704Z,24.83
2022-12-10T20:59:28.088Z,26.70
2022-12-10T21:01:58.406Z,27.67
2022-12-10T21:04:26.937Z,26.57
2022-12-10T21:06:54.826Z,26.23
2022-12-10T21:09:24.220Z,25.83
2022-12-10T21:11:52.571Z,25.70
2022-12-10T21:17:09.531Z,26.63
2022-12-10T21:19:37.247Z,26.87
2022-12-10T21:22:05.304Z,26.63
2022-12-10T21:24:33.130Z,25.57
2022-12-10T21:27:02.110Z,25.60
2022-12-10T21:29:30.060Z,26.37
2022-12-10T21:31:57.908Z,26.13
2022-12-10T21:34:25.610Z,28.07
2022-12-10T21:36:53.495Z,26.07
2022-12-10T21:39:25.001Z,26.10
2022-12-10T21:42:12.099Z,24.37
2022-12-10T21:44:40.200Z,25.23
2022-12-10T21:47:08.178Z,25.37
2022-12-10T21:49:35.744Z,25.13
2022-12-10T21:52:03.166Z,25.10
2022-12-10T21:54:31.310Z,26.23
2022-12-10T21:56:59.130Z,24.67
2022-12-10T21:59:26.627Z,24.70
2022-12-10T22:01:57.092Z,25.37
2022-12-10T22:04:24.946Z,26.10
2022-12-10T22:06:52.691Z,26.70
2022-12-10T22:09:20.157Z,25.57
2022-12-10T22:11:47.597Z,26.03
2022-12-10T22:14:15.018Z,25.73
2022-12-10T22:16:48.067Z,24.87
2022-12-10T22:19:16.294Z,25.03
2022-12-10T22:21:43.826Z,23.80
2022-12-10T22:24:11.246Z,25.47
2022-12-10T22:26:38.643Z,24.43
2022-12-10T22:29:06.274Z,25.13
2022-12-10T22:31:33.704Z,24.47
2022-12-10T22:34:01.145Z,24.47
2022-12-10T22:36:28.496Z,23.33
2022-12-10T22:38:55.980Z,23.60
2022-12-10T22:41:23.322Z,23.03
2022-12-10T22:43:51.693Z,23.07
2022-12-10T22:46:20.177Z,22.93
2022-12-10T22:48:47.949Z,23.27
2022-12-10T22:51:15.690Z,23.57
2022-12-10T22:53:43.130Z,23.23
2022-12-10T22:56:13.216Z,22.93
2022-12-10T22:58:41.617Z,24.83
2022-12-10T23:01:16.528Z,23.97
2022-12-10T23:03:44.178Z,24.63
2022-12-10T23:06:12.099Z,24.77
2022-12-10T23:08:39.788Z,25.10
2022-12-10T23:11:08.229Z,24.50
2022-12-10T23:13:39.065Z,23.93
2022-12-10T23:16:09.512Z,23.33
2022-12-10T23:18:37.273Z,24.50
2022-12-10T23:21:13.335Z,25.27
2022-12-10T23:23:40.787Z,23.53
2022-12-10T23:26:08.227Z,24.90
2022-12-10T23:28:38.538Z,24.27
2022-12-10T23:31:06.390Z,24.37
2022-12-10T23:33:34.316Z,24.20
2022-12-10T23:36:05.651Z,23.93
2022-12-10T23:38:33.042Z,22.93
2022-12-10T23:41:00.390Z,22.77
2022-12-10T23:43:27.736Z,22.13
2022-12-10T23:45:55.373Z,22.67
2022-12-10T23:48:22.740Z,22.03
2022-12-10T23:50:50.077Z,22.47
2022-12-10T23:53:17.477Z,22.23
2022-12-10T23:55:44.877Z,22.90
2022-12-10T23:58:12.198Z,22.70
